Time;durP1;ratioP1;P1;durP2;ratioP2;P2;SDS_P1;SDS_P2;PMS_P1;PMS_P2;Temp;Humidity;BMP_temperature;BMP_pressure;BME280_temperature;BME280_humidity;BME280_pressure;Samples;Min_cycle;Max_cycle;Signal;HPM_P1;HPM_P2
2023/01/24 05:03:20;;;;;;;1999.90;999.90;;;;;;;;;;4934374;29;20209;-75
2023/01/24 05:06:05;;;;;;;1999.90;999.90;;;;;;;;;;4935826;29;20312;-73
2023/01/24 05:08:50;;;;;;;1999.90;999.90;;;;;;;;;;4936080;29;20233;-75
2023/01/24 05:11:36;;;;;;;1999.90;999.90;;;;;;;;;;4936332;29;20723;-75
2023/01/24 05:14:21;;;;;;;1999.90;999.90;;;;;;;;;;4934958;29;20313;-74
2023/01/24 05:17:05;;;;;;;1999.90;999.90;;;;;;;;;;4936244;29;20711;-75
2023/01/24 05:19:52;;;;;;;1999.90;999.90;;;;;;;;;;4935246;29;20587;-75
2023/01/24 05:22:37;;;;;;;1999.90;999.90;;;;;;;;;;4935904;29;20289;-76
2023/01/24 05:25:22;;;;;;;1999.90;999.90;;;;;;;;;;4918231;29;20250;-75
2023/01/24 05:28:06;;;;;;;1999.90;999.90;;;;;;;;;;4918688;29;20728;-75
2023/01/24 05:30:51;;;;;;;1999.90;999.90;;;;;;;;;;4935728;29;20301;-74
2023/01/24 05:33:36;;;;;;;1999.90;999.90;;;;;;;;;;4935404;29;20818;-75
2023/01/24 05:36:24;;;;;;;1999.90;999.90;;;;;;;;;;4935734;29;20341;-73
2023/01/24 05:39:09;;;;;;;1999.90;999.90;;;;;;;;;;4924222;29;20337;-74
2023/01/24 05:41:54;;;;;;;1999.90;999.90;;;;;;;;;;4916607;29;20230;-75
2023/01/24 05:44:38;;;;;;;1999.90;999.90;;;;;;;;;;4930083;29;20212;-74
2023/01/24 05:47:23;;;;;;;1999.90;999.90;;;;;;;;;;4935806;29;20767;-73
2023/01/24 05:50:09;;;;;;;1999.90;999.90;;;;;;;;;;4918283;29;20218;-73
2023/01/24 05:52:56;;;;;;;1999.90;999.90;;;;;;;;;;4916694;29;20284;-74
2023/01/24 05:55:41;;;;;;;1999.90;999.90;;;;;;;;;;4934505;29;20216;-74
2023/01/24 05:58:26;;;;;;;1999.90;999.90;;;;;;;;;;4931664;29;20711;-74
2023/01/24 06:01:12;;;;;;;1999.90;999.90;;;;;;;;;;4933489;29;20245;-72
2023/01/24 06:03:57;;;;;;;1999.90;999.90;;;;;;;;;;4934674;29;20217;-74
2023/01/24 06:06:42;;;;;;;1999.90;999.90;;;;;;;;;;4935366;29;20692;-73
2023/01/24 06:09:28;;;;;;;1999.90;999.90;;;;;;;;;;4933742;29;20342;-73
2023/01/24 06:12:13;;;;;;;1999.90;999.90;;;;;;;;;;4948641;29;20730;-73
2023/01/24 06:14:58;;;;;;;1999.90;999.90;;;;;;;;;;4952500;29;20388;-72
2023/01/24 06:17:43;;;;;;;1999.90;999.90;;;;;;;;;;4951876;29;20205;-70
2023/01/24 06:20:28;;;;;;;1999.90;999.90;;;;;;;;;;4954339;29;20231;-71
2023/01/24 06:23:22;;;;;;;1999.90;999.90;;;;;;;;;;4954152;29;20781;-68
2023/01/24 06:26:10;;;;;;;1999.90;999.90;;;;;;;;;;4953390;29;20200;-68
2023/01/24 06:28:56;;;;;;;1999.90;999.90;;;;;;;;;;4949216;29;20265;-69
2023/01/24 06:31:46;;;;;;;1999.90;999.90;;;;;;;;;;4952752;29;20281;-71
2023/01/24 06:34:45;;;;;;;1999.90;999.90;;;;;;;;;;4952130;29;20208;-68
2023/01/24 06:37:35;;;;;;;1999.90;999.90;;;;;;;;;;4945956;29;20468;-72
2023/01/24 06:40:22;;;;;;;1999.90;999.90;;;;;;;;;;4934859;29;20341;-71
2023/01/24 06:43:09;;;;;;;1999.90;999.90;;;;;;;;;;4944988;29;20323;-72
2023/01/24 06:45:53;;;;;;;1999.90;999.90;;;;;;;;;;4950437;29;20265;-71
2023/01/24 06:48:38;;;;;;;1999.90;999.90;;;;;;;;;;4952589;29;20228;-71
2023/01/24 06:51:23;;;;;;;1999.90;999.90;;;;;;;;;;4952959;29;20248;-73
2023/01/24 06:54:08;;;;;;;1999.90;999.90;;;;;;;;;;4953374;29;20248;-70
2023/01/24 06:56:53;;;;;;;1999.90;999.90;;;;;;;;;;4951172;29;20213;-69
2023/01/24 06:59:39;;;;;;;1999.90;999.90;;;;;;;;;;4950331;29;20213;-69
2023/01/24 07:02:24;;;;;;;1999.90;999.90;;;;;;;;;;4953070;29;20292;-72
2023/01/24 07:05:09;;;;;;;1999.90;999.90;;;;;;;;;;4953344;29;20209;-71
2023/01/24 07:07:55;;;;;;;1999.90;999.90;;;;;;;;;;4953061;29;20288;-71
2023/01/24 07:10:40;;;;;;;1999.90;999.90;;;;;;;;;;4953691;29;20663;-70
2023/01/24 07:13:25;;;;;;;1999.90;999.90;;;;;;;;;;4934988;29;20222;-71
2023/01/24 07:16:11;;;;;;;1999.90;999.90;;;;;;;;;;4919948;29;20300;-69
2023/01/24 07:18:57;;;;;;;1999.90;999.90;;;;;;;;;;4950443;29;20581;-71
2023/01/24 07:21:43;;;;;;;1999.90;999.90;;;;;;;;;;4949938;29;20606;-71
2023/01/24 07:24:29;;;;;;;1999.90;999.90;;;;;;;;;;4952785;29;20212;-71
2023/01/24 07:27:14;;;;;;;1999.90;999.90;;;;;;;;;;4953657;29;20703;-71
2023/01/24 07:29:59;;;;;;;1999.90;999.90;;;;;;;;;;4951924;29;20349;-69
2023/01/24 07:32:45;;;;;;;1999.90;999.90;;;;;;;;;;4948567;29;20221;-71
2023/01/24 07:35:30;;;;;;;1999.90;999.90;;;;;;;;;;4952063;29;20719;-71
2023/01/24 07:38:15;;;;;;;1999.90;999.90;;;;;;;;;;4952112;29;20788;-69
2023/01/24 07:41:00;;;;;;;1999.90;999.90;;;;;;;;;;4953049;29;20609;-73
2023/01/24 07:43:45;;;;;;;1999.90;999.90;;;;;;;;;;4932401;29;20652;-72
2023/01/24 07:46:30;;;;;;;1999.90;999.90;;;;;;;;;;4915196;29;20270;-73
2023/01/24 07:49:16;;;;;;;1999.90;999.90;;;;;;;;;;4915870;29;20190;-72
2023/01/24 07:52:01;;;;;;;1999.90;999.90;;;;;;;;;;4951583;28;20461;-72
2023/01/24 07:54:46;;;;;;;1999.90;999.90;;;;;;;;;;4956129;29;20435;-72
2023/01/24 07:57:31;;;;;;;1999.90;999.90;;;;;;;;;;4955863;29;20336;-69
2023/01/24 08:00:17;;;;;;;1999.90;999.90;;;;;;;;;;4954762;29;20299;-71
2023/01/24 08:03:02;;;;;;;1999.90;999.90;;;;;;;;;;4955038;29;20338;-73
2023/01/24 08:05:48;;;;;;;1999.90;999.90;;;;;;;;;;4955336;29;20357;-73
2023/01/24 08:08:33;;;;;;;1999.90;999.90;;;;;;;;;;4956302;29;20586;-73
2023/01/24 08:11:18;;;;;;;1999.90;999.90;;;;;;;;;;4949220;29;20833;-73
2023/01/24 08:14:03;;;;;;;1999.90;999.90;;;;;;;;;;4951125;29;20348;-73
2023/01/24 08:16:48;;;;;;;1999.90;999.90;;;;;;;;;;4953080;29;20419;-72
2023/01/24 08:19:33;;;;;;;1999.90;999.90;;;;;;;;;;4922947;29;20210;-73
2023/01/24 08:22:19;;;;;;;1999.90;999.90;;;;;;;;;;4918214;29;20685;-72
2023/01/24 08:25:04;;;;;;;1999.90;999.90;;;;;;;;;;4932930;29;20212;-72
2023/01/24 08:27:50;;;;;;;1999.90;999.90;;;;;;;;;;4930509;29;20293;-72
2023/01/24 08:30:34;;;;;;;1999.90;999.90;;;;;;;;;;4921325;29;20694;-72
2023/01/24 08:33:19;;;;;;;1999.90;999.90;;;;;;;;;;4930350;29;20320;-73
2023/01/24 08:36:04;;;;;;;1999.90;999.90;;;;;;;;;;4918515;29;20213;-73
2023/01/24 08:38:51;;;;;;;1999.90;999.90;;;;;;;;;;4935791;29;20757;-72
2023/01/24 08:41:36;;;;;;;1999.90;999.90;;;;;;;;;;4934749;29;20257;-73
2023/01/24 08:44:22;;;;;;;1999.90;999.90;;;;;;;;;;4933304;29;20691;-73
2023/01/24 08:47:07;;;;;;;1999.90;999.90;;;;;;;;;;4918008;29;20689;-73
2023/01/24 08:49:51;;;;;;;1999.90;999.90;;;;;;;;;;4917716;29;20219;-75
2023/01/24 08:52:36;;;;;;;1999.90;999.90;;;;;;;;;;4926290;29;20237;-74
2023/01/24 08:55:23;;;;;;;1999.90;999.90;;;;;;;;;;4936429;29;20861;-74
2023/01/24 08:58:08;;;;;;;1999.90;999.90;;;;;;;;;;4919443;29;20213;-73
2023/01/24 09:00:53;;;;;;;1999.90;999.90;;;;;;;;;;4917375;29;20239;-75
2023/01/24 09:03:38;;;;;;;1999.90;999.90;;;;;;;;;;4936042;29;20313;-74
2023/01/24 09:06:23;;;;;;;1999.90;999.90;;;;;;;;;;4934486;29;20291;-74
2023/01/24 09:09:08;;;;;;;1999.90;999.90;;;;;;;;;;4933189;29;20205;-74
2023/01/24 09:11:54;;;;;;;1999.90;999.90;;;;;;;;;;4932046;29;20735;-73
2023/01/24 09:14:39;;;;;;;1999.90;999.90;;;;;;;;;;4931115;29;20209;-73
2023/01/24 09:17:24;;;;;;;1999.90;999.90;;;;;;;;;;4930901;29;20744;-73
2023/01/24 09:20:11;;;;;;;1999.90;999.90;;;;;;;;;;4932798;29;20213;-74
2023/01/24 09:22:56;;;;;;;1999.90;999.90;;;;;;;;;;4931913;29;20225;-72
2023/01/24 09:25:41;;;;;;;1999.90;999.90;;;;;;;;;;4931786;29;20595;-73
2023/01/24 09:28:28;;;;;;;1999.90;999.90;;;;;;;;;;4930376;29;20221;-73
2023/01/24 09:31:13;;;;;;;1999.90;999.90;;;;;;;;;;4933051;29;20317;-72
2023/01/24 09:33:58;;;;;;;1999.90;999.90;;;;;;;;;;4934018;29;20312;-73
2023/01/24 09:36:43;;;;;;;1999.90;999.90;;;;;;;;;;4930321;29;20209;-72
2023/01/24 09:39:28;;;;;;;1999.90;999.90;;;;;;;;;;4931538;29;20209;-72
2023/01/24 09:42:15;;;;;;;1999.90;999.90;;;;;;;;;;4931215;29;20276;-72
2023/01/24 09:45:08;;;;;;;1999.90;999.90;;;;;;;;;;4930232;29;20206;-71
2023/01/24 09:47:54;;;;;;;1999.90;999.90;;;;;;;;;;4931177;29;20242;-71
2023/01/24 09:50:47;;;;;;;1999.90;999.90;;;;;;;;;;4928928;29;20226;-72
2023/01/24 09:53:40;;;;;;;1999.90;999.90;;;;;;;;;;4929527;29;20408;-73
2023/01/24 09:56:30;;;;;;;1999.90;999.90;;;;;;;;;;4931195;29;20427;-73
2023/01/24 09:59:21;;;;;;;1999.90;999.90;;;;;;;;;;4933098;29;20205;-73
2023/01/24 10:02:14;;;;;;;1999.90;999.90;;;;;;;;;;4932304;29;20287;-74
2023/01/24 10:05:00;;;;;;;1999.90;999.90;;;;;;;;;;4930888;29;20257;-71
2023/01/24 10:07:54;;;;;;;1999.90;999.90;;;;;;;;;;4931655;29;20209;-73
2023/01/24 10:10:50;;;;;;;1999.90;999.90;;;;;;;;;;4930896;29;20206;-72
2023/01/24 10:13:50;;;;;;;1999.90;999.90;;;;;;;;;;4933001;29;20288;-72
2023/01/24 10:16:47;;;;;;;1999.90;999.90;;;;;;;;;;4928890;29;20209;-73
2023/01/24 10:19:45;;;;;;;1999.90;999.90;;;;;;;;;;4929993;29;20222;-72
2023/01/24 10:22:39;;;;;;;1999.90;999.90;;;;;;;;;;4924469;29;20737;-74
2023/01/24 10:25:26;;;;;;;1999.90;999.90;;;;;;;;;;4929486;29;20218;-72
2023/01/24 10:28:16;;;;;;;1999.90;999.90;;;;;;;;;;4930452;29;20209;-73
2023/01/24 10:31:04;;;;;;;1999.90;999.90;;;;;;;;;;4930379;29;20241;-72
2023/01/24 10:33:50;;;;;;;1999.90;999.90;;;;;;;;;;4931670;29;20289;-72
2023/01/24 10:36:42;;;;;;;1999.90;999.90;;;;;;;;;;4930958;29;20213;-71
2023/01/24 10:39:28;;;;;;;1999.90;999.90;;;;;;;;;;4929824;29;20225;-73
2023/01/24 10:42:17;;;;;;;1999.90;999.90;;;;;;;;;;4932506;29;20268;-72
2023/01/24 10:45:18;;;;;;;1999.90;999.90;;;;;;;;;;4929580;29;20233;-73
2023/01/24 10:48:07;;;;;;;1999.90;999.90;;;;;;;;;;4931720;29;20201;-70
2023/01/24 10:50:52;;;;;;;1999.90;999.90;;;;;;;;;;4930900;29;20369;-72
2023/01/24 10:53:39;;;;;;;1999.90;999.90;;;;;;;;;;4931616;29;20680;-71
2023/01/24 10:56:23;;;;;;;1999.90;999.90;;;;;;;;;;4930490;29;20209;-72
2023/01/24 10:59:12;;;;;;;1999.90;999.90;;;;;;;;;;4930803;29;20293;-72
2023/01/24 11:02:00;;;;;;;1999.90;999.90;;;;;;;;;;4930138;29;20726;-71
2023/01/24 11:04:45;;;;;;;1999.90;999.90;;;;;;;;;;4931018;29;20233;-72
2023/01/24 11:07:32;;;;;;;1999.90;999.90;;;;;;;;;;4928272;29;20670;-72
2023/01/24 11:10:26;;;;;;;1999.90;999.90;;;;;;;;;;4930359;29;20222;-73
2023/01/24 11:13:32;;;;;;;1999.90;999.90;;;;;;;;;;4930100;29;20210;-73
2023/01/24 11:16:22;;;;;;;1999.90;999.90;;;;;;;;;;4931276;29;20574;-71
2023/01/24 11:19:20;;;;;;;1999.90;999.90;;;;;;;;;;4929778;29;20213;-73
2023/01/24 11:22:19;;;;;;;1999.90;999.90;;;;;;;;;;4931248;29;20242;-73
2023/01/24 11:25:13;;;;;;;1999.90;999.90;;;;;;;;;;4931952;29;20695;-72
2023/01/24 11:28:00;;;;;;;1999.90;999.90;;;;;;;;;;4934383;29;20700;-74
2023/01/24 11:30:45;;;;;;;1999.90;999.90;;;;;;;;;;4935806;29;20237;-74
2023/01/24 11:33:34;;;;;;;1999.90;999.90;;;;;;;;;;4935397;29;20229;-73
2023/01/24 11:36:26;;;;;;;1999.90;999.90;;;;;;;;;;4935390;29;20292;-74
2023/01/24 11:39:14;;;;;;;1999.90;999.90;;;;;;;;;;4935058;29;20622;-73
2023/01/24 11:42:02;;;;;;;1999.90;999.90;;;;;;;;;;4934966;29;20756;-73
2023/01/24 11:45:02;;;;;;;1999.90;999.90;;;;;;;;;;4933094;29;20221;-73
2023/01/24 11:47:52;;;;;;;1999.90;999.90;;;;;;;;;;4932537;29;20225;-73
2023/01/24 11:50:41;;;;;;;1999.90;999.90;;;;;;;;;;4936083;29;20704;-74
2023/01/24 11:53:39;;;;;;;1999.90;999.90;;;;;;;;;;4934452;29;20266;-72
2023/01/24 11:56:29;;;;;;;1999.90;999.90;;;;;;;;;;4935518;29;20261;-73
2023/01/24 11:59:25;;;;;;;1999.90;999.90;;;;;;;;;;4934545;29;20229;-73
2023/01/24 12:02:20;;;;;;;1999.90;999.90;;;;;;;;;;4933993;29;20249;-73
2023/01/24 12:05:11;;;;;;;1999.90;999.90;;;;;;;;;;4932477;29;20291;-73
2023/01/24 12:08:19;;;;;;;1999.90;999.90;;;;;;;;;;4932921;29;20213;-73
2023/01/24 12:11:11;;;;;;;1999.90;999.90;;;;;;;;;;4934660;29;20233;-73
2023/01/24 12:14:01;;;;;;;1999.90;999.90;;;;;;;;;;4933690;29;20210;-73
2023/01/24 12:16:53;;;;;;;1999.90;999.90;;;;;;;;;;4931515;29;20209;-72
2023/01/24 12:19:49;;;;;;;1999.90;999.90;;;;;;;;;;4933338;29;20237;-73
2023/01/24 12:22:35;;;;;;;1999.90;999.90;;;;;;;;;;4933423;29;20228;-73
2023/01/24 12:25:23;;;;;;;1999.90;999.90;;;;;;;;;;4935234;29;20316;-73
2023/01/24 12:28:13;;;;;;;1999.90;999.90;;;;;;;;;;4933538;29;20253;-73
2023/01/24 12:30:59;;;;;;;1999.90;999.90;;;;;;;;;;4935036;29;20236;-72
2023/01/24 12:33:47;;;;;;;1999.90;999.90;;;;;;;;;;4932477;29;20720;-71
2023/01/24 12:36:36;;;;;;;1999.90;999.90;;;;;;;;;;4931930;29;20213;-72
2023/01/24 12:39:24;;;;;;;1999.90;999.90;;;;;;;;;;4932797;29;20696;-72
2023/01/24 12:42:14;;;;;;;1999.90;999.90;;;;;;;;;;4930308;29;20240;-73
2023/01/24 12:45:01;;;;;;;1999.90;999.90;;;;;;;;;;4934901;29;20217;-74
2023/01/24 12:47:49;;;;;;;1999.90;999.90;;;;;;;;;;4934143;29;20205;-73
2023/01/24 12:50:40;;;;;;;1999.90;999.90;;;;;;;;;;4934283;29;20581;-74
2023/01/24 12:53:29;;;;;;;1999.90;999.90;;;;;;;;;;4932073;29;20285;-75
2023/01/24 12:56:16;;;;;;;1999.90;999.90;;;;;;;;;;4930914;29;20290;-74
2023/01/24 12:59:01;;;;;;;1999.90;999.90;;;;;;;;;;4932133;29;20576;-71
2023/01/24 13:02:02;;;;;;;1999.90;999.90;;;;;;;;;;4933484;29;20772;-73
2023/01/24 13:04:51;;;;;;;1999.90;999.90;;;;;;;;;;4931324;29;20233;-73
2023/01/24 13:07:42;;;;;;;1999.90;999.90;;;;;;;;;;4933187;29;20700;-74
2023/01/24 13:10:38;;;;;;;1999.90;999.90;;;;;;;;;;4933493;29;20210;-73
2023/01/24 13:13:24;;;;;;;1999.90;999.90;;;;;;;;;;4933376;29;20765;-73
2023/01/24 13:16:30;;;;;;;1999.90;999.90;;;;;;;;;;4933088;29;20209;-73
2023/01/24 13:19:21;;;;;;;1999.90;999.90;;;;;;;;;;4933866;29;20209;-73
2023/01/24 13:22:11;;;;;;;1999.90;999.90;;;;;;;;;;4933033;29;20299;-74
2023/01/24 13:24:59;;;;;;;1999.90;999.90;;;;;;;;;;4931006;29;20225;-73
2023/01/24 13:27:48;;;;;;;1999.90;999.90;;;;;;;;;;4933304;29;20221;-73
2023/01/24 13:30:37;;;;;;;1999.90;999.90;;;;;;;;;;4932190;29;20770;-73
2023/01/24 13:33:26;;;;;;;1999.90;999.90;;;;;;;;;;4933999;29;20209;-72
2023/01/24 13:36:15;;;;;;;1999.90;999.90;;;;;;;;;;4931403;29;20752;-72
2023/01/24 13:39:00;;;;;;;1999.90;999.90;;;;;;;;;;4933693;29;20210;-73
2023/01/24 13:41:49;;;;;;;1999.90;999.90;;;;;;;;;;4932810;29;20312;-71
2023/01/24 13:44:36;;;;;;;1999.90;999.90;;;;;;;;;;4932774;29;20365;-74
2023/01/24 13:47:25;;;;;;;1999.90;999.90;;;;;;;;;;4933712;29;20202;-74
2023/01/24 13:50:17;;;;;;;1999.90;999.90;;;;;;;;;;4931141;29;20285;-73
2023/01/24 13:53:02;;;;;;;1999.90;999.90;;;;;;;;;;4933159;29;20751;-73
2023/01/24 13:56:02;;;;;;;1999.90;999.90;;;;;;;;;;4930612;29;20212;-73
2023/01/24 13:58:50;;;;;;;1999.90;999.90;;;;;;;;;;4932736;29;20209;-74
2023/01/24 14:01:44;;;;;;;1999.90;999.90;;;;;;;;;;4929339;29;20244;-71
2023/01/24 14:04:37;;;;;;;1999.90;999.90;;;;;;;;;;4930079;29;20230;-73
2023/01/24 14:07:27;;;;;;;1999.90;999.90;;;;;;;;;;4932780;29;20209;-74
2023/01/24 14:10:12;;;;;;;1999.90;999.90;;;;;;;;;;4931923;29;20418;-74
2023/01/24 14:12:57;;;;;;;1999.90;999.90;;;;;;;;;;4931579;29;20210;-73
2023/01/24 14:15:42;;;;;;;1999.90;999.90;;;;;;;;;;4931858;29;20197;-74
2023/01/24 14:18:43;;;;;;;1999.90;999.90;;;;;;;;;;4933121;29;20815;-73
2023/01/24 14:21:30;;;;;;;1999.90;999.90;;;;;;;;;;4929149;29;20354;-71
2023/01/24 14:24:19;;;;;;;1999.90;999.90;;;;;;;;;;4932732;29;20221;-72
2023/01/24 14:27:17;;;;;;;1999.90;999.90;;;;;;;;;;4930197;29;20205;-73
2023/01/24 14:30:16;;;;;;;1999.90;999.90;;;;;;;;;;4931017;29;20703;-74
2023/01/24 14:33:04;;;;;;;1999.90;999.90;;;;;;;;;;4932130;29;20218;-73
2023/01/24 14:35:56;;;;;;;1999.90;999.90;;;;;;;;;;4931061;29;20423;-73
2023/01/24 14:38:40;;;;;;;1999.90;999.90;;;;;;;;;;4932002;29;20349;-73
2023/01/24 14:41:25;;;;;;;1999.90;999.90;;;;;;;;;;4931966;29;20312;-74
2023/01/24 14:44:18;;;;;;;1999.90;999.90;;;;;;;;;;4932626;29;20228;-73
2023/01/24 14:47:04;;;;;;;1999.90;999.90;;;;;;;;;;4932731;29;20225;-74
2023/01/24 14:49:50;;;;;;;1999.90;999.90;;;;;;;;;;4932703;29;20216;-74
2023/01/24 14:52:38;;;;;;;1999.90;999.90;;;;;;;;;;4930826;29;20724;-73
2023/01/24 14:55:32;;;;;;;1999.90;999.90;;;;;;;;;;4932128;29;20205;-72
2023/01/24 14:58:21;;;;;;;1999.90;999.90;;;;;;;;;;4931823;29;20589;-73
2023/01/24 15:01:22;;;;;;;1999.90;999.90;;;;;;;;;;4930800;29;20260;-73
2023/01/24 15:04:20;;;;;;;1999.90;999.90;;;;;;;;;;4935709;29;20221;-73
2023/01/24 15:07:12;;;;;;;1999.90;999.90;;;;;;;;;;4936442;29;20311;-73
2023/01/24 15:09:59;;;;;;;1999.90;999.90;;;;;;;;;;4935981;29;20705;-73
2023/01/24 15:12:44;;;;;;;1999.90;999.90;;;;;;;;;;4936191;29;20593;-73
2023/01/24 15:15:29;;;;;;;1999.90;999.90;;;;;;;;;;4935059;29;20201;-73
2023/01/24 15:18:25;;;;;;;1999.90;999.90;;;;;;;;;;4934497;29;20580;-73
2023/01/24 15:21:19;;;;;;;1999.90;999.90;;;;;;;;;;4934016;29;20229;-73
2023/01/24 15:24:04;;;;;;;1999.90;999.90;;;;;;;;;;4935447;29;20201;-73
2023/01/24 15:26:51;;;;;;;1999.90;999.90;;;;;;;;;;4934369;29;20209;-73
2023/01/24 15:29:43;;;;;;;1999.90;999.90;;;;;;;;;;4934329;29;20225;-72
2023/01/24 15:32:40;;;;;;;1999.90;999.90;;;;;;;;;;4932787;29;20245;-72
2023/01/24 15:35:40;;;;;;;1999.90;999.90;;;;;;;;;;4933877;29;20586;-72
2023/01/24 15:38:26;;;;;;;1999.90;999.90;;;;;;;;;;4934013;29;20217;-72
2023/01/24 15:41:19;;;;;;;1999.90;999.90;;;;;;;;;;4935631;29;20316;-72
2023/01/24 15:44:05;;;;;;;1999.90;999.90;;;;;;;;;;4932111;29;20213;-72
2023/01/24 15:49:57;;;;;;;1999.90;999.90;;;;;;;;;;4934387;29;20260;-72
2023/01/24 15:52:43;;;;;;;1999.90;999.90;;;;;;;;;;4930663;29;20237;-73
2023/01/24 15:55:28;;;;;;;1999.90;999.90;;;;;;;;;;4933143;29;20221;-73
2023/01/24 15:58:13;;;;;;;1999.90;999.90;;;;;;;;;;4934533;29;20673;-73
2023/01/24 16:01:00;;;;;;;1999.90;999.90;;;;;;;;;;4930442;29;20236;-72
2023/01/24 16:03:45;;;;;;;1999.90;999.90;;;;;;;;;;4933094;29;20620;-72
2023/01/24 16:06:30;;;;;;;1999.90;999.90;;;;;;;;;;4930584;29;20275;-74
2023/01/24 16:09:14;;;;;;;1999.90;999.90;;;;;;;;;;4932697;29;20704;-73
2023/01/24 16:12:00;;;;;;;1999.90;999.90;;;;;;;;;;4935002;29;20777;-73
2023/01/24 16:14:47;;;;;;;1999.90;999.90;;;;;;;;;;4932827;29;20212;-74
2023/01/24 16:17:33;;;;;;;1999.90;999.90;;;;;;;;;;4932600;29;20213;-73
2023/01/24 16:20:19;;;;;;;1999.90;999.90;;;;;;;;;;4934891;29;20213;-74
2023/01/24 16:23:04;;;;;;;1999.90;999.90;;;;;;;;;;4934909;29;20580;-73
2023/01/24 16:25:50;;;;;;;1999.90;999.90;;;;;;;;;;4933467;29;20221;-73
2023/01/24 16:28:35;;;;;;;1999.90;999.90;;;;;;;;;;4934043;29;20213;-73
2023/01/24 16:31:20;;;;;;;1999.90;999.90;;;;;;;;;;4933448;29;20735;-74
2023/01/24 16:34:06;;;;;;;1999.90;999.90;;;;;;;;;;4934744;29;20205;-72
2023/01/24 16:36:51;;;;;;;1999.90;999.90;;;;;;;;;;4939863;29;20210;-71
2023/01/24 16:39:36;;;;;;;1999.90;999.90;;;;;;;;;;4938773;29;20265;-71
2023/01/24 16:42:21;;;;;;;1999.90;999.90;;;;;;;;;;4938210;29;20232;-72
2023/01/24 16:45:06;;;;;;;1999.90;999.90;;;;;;;;;;4933378;29;20236;-73
2023/01/24 16:47:51;;;;;;;1999.90;999.90;;;;;;;;;;4933633;29;20317;-74
2023/01/24 16:50:39;;;;;;;1999.90;999.90;;;;;;;;;;4933078;29;20404;-72
2023/01/24 16:53:25;;;;;;;1999.90;999.90;;;;;;;;;;4932157;29;20213;-74
2023/01/24 16:56:10;;;;;;;1999.90;999.90;;;;;;;;;;4934427;29;20688;-72
2023/01/24 16:58:54;;;;;;;1999.90;999.90;;;;;;;;;;4933300;29;20282;-76
2023/01/24 17:01:40;;;;;;;1999.90;999.90;;;;;;;;;;4931160;29;20236;-74
2023/01/24 17:04:25;;;;;;;1999.90;999.90;;;;;;;;;;4932177;29;20217;-74
2023/01/24 17:07:11;;;;;;;1999.90;999.90;;;;;;;;;;4934296;29;20216;-73
2023/01/24 17:09:56;;;;;;;1999.90;999.90;;;;;;;;;;4934242;29;20209;-75
2023/01/24 17:12:41;;;;;;;1999.90;999.90;;;;;;;;;;4931864;29;20237;-75
2023/01/24 17:15:26;;;;;;;1999.90;999.90;;;;;;;;;;4931074;29;20213;-74
2023/01/24 17:18:10;;;;;;;1999.90;999.90;;;;;;;;;;4933247;29;20201;-74
2023/01/24 17:20:55;;;;;;;1999.90;999.90;;;;;;;;;;4931480;29;20736;-76
2023/01/24 17:23:42;;;;;;;1999.90;999.90;;;;;;;;;;4932898;29;20919;-74
2023/01/24 17:26:27;;;;;;;1999.90;999.90;;;;;;;;;;4930847;29;20238;-74
2023/01/24 17:29:12;;;;;;;1999.90;999.90;;;;;;;;;;4930304;29;20209;-73
2023/01/24 17:31:57;;;;;;;1999.90;999.90;;;;;;;;;;4929211;29;20352;-74
2023/01/24 17:34:41;;;;;;;1999.90;999.90;;;;;;;;;;4933320;29;20281;-74
2023/01/24 17:37:26;;;;;;;1999.90;999.90;;;;;;;;;;4932450;29;20228;-75
2023/01/24 17:40:13;;;;;;;1999.90;999.90;;;;;;;;;;4931963;29;20579;-75
2023/01/24 17:42:58;;;;;;;1999.90;999.90;;;;;;;;;;4933163;29;20205;-75
2023/01/24 17:45:49;;;;;;;1999.90;999.90;;;;;;;;;;4930812;29;20229;-74
2023/01/24 17:48:34;;;;;;;1999.90;999.90;;;;;;;;;;4932090;29;20470;-75
2023/01/24 17:51:20;;;;;;;1999.90;999.90;;;;;;;;;;4932419;29;20233;-74
2023/01/24 17:54:05;;;;;;;1999.90;999.90;;;;;;;;;;4933360;29;20592;-76
2023/01/24 17:56:51;;;;;;;1999.90;999.90;;;;;;;;;;4930468;29;20202;-74
2023/01/24 17:59:36;;;;;;;1999.90;999.90;;;;;;;;;;4930252;29;20217;-73
2023/01/24 18:02:21;;;;;;;1999.90;999.90;;;;;;;;;;4933179;29;20361;-74
2023/01/24 18:05:06;;;;;;;1999.90;999.90;;;;;;;;;;4930530;29;20604;-74
2023/01/24 18:07:51;;;;;;;1999.90;999.90;;;;;;;;;;4932406;29;20205;-71
2023/01/24 18:10:37;;;;;;;1999.90;999.90;;;;;;;;;;4929541;29;20220;-75
2023/01/24 18:13:23;;;;;;;1999.90;999.90;;;;;;;;;;4932475;29;20233;-75
2023/01/24 18:16:09;;;;;;;1999.90;999.90;;;;;;;;;;4932173;29;20285;-74
2023/01/24 18:18:55;;;;;;;1999.90;999.90;;;;;;;;;;4929576;29;20216;-75
2023/01/24 18:21:39;;;;;;;1999.90;999.90;;;;;;;;;;4932109;29;20244;-74
2023/01/24 18:24:25;;;;;;;1999.90;999.90;;;;;;;;;;4932619;29;20293;-75
2023/01/24 18:27:10;;;;;;;1999.90;999.90;;;;;;;;;;4931937;29;20293;-76
2023/01/24 18:29:56;;;;;;;1999.90;999.90;;;;;;;;;;4932728;29;20707;-75
2023/01/24 18:32:41;;;;;;;1999.90;999.90;;;;;;;;;;4932948;29;20636;-73
2023/01/24 18:35:27;;;;;;;1999.90;999.90;;;;;;;;;;4931706;29;20205;-74
2023/01/24 18:38:12;;;;;;;1999.90;999.90;;;;;;;;;;4932532;29;20213;-71
2023/01/24 18:40:57;;;;;;;1999.90;999.90;;;;;;;;;;4932337;29;20233;-74
2023/01/24 18:43:42;;;;;;;1999.90;999.90;;;;;;;;;;4932066;29;20340;-74
2023/01/24 18:46:28;;;;;;;1999.90;999.90;;;;;;;;;;4928918;29;20232;-74
2023/01/24 18:49:13;;;;;;;1999.90;999.90;;;;;;;;;;4930888;29;20201;-74
2023/01/24 18:51:58;;;;;;;1999.90;999.90;;;;;;;;;;4932329;29;20229;-74
2023/01/24 18:54:43;;;;;;;1999.90;999.90;;;;;;;;;;4932297;29;20310;-74
2023/01/24 18:57:28;;;;;;;1999.90;999.90;;;;;;;;;;4932102;29;20422;-74
2023/01/24 19:00:13;;;;;;;1999.90;999.90;;;;;;;;;;4932282;29;20269;-75
2023/01/24 19:03:00;;;;;;;1999.90;999.90;;;;;;;;;;4929927;29;20217;-75
2023/01/24 19:05:45;;;;;;;1999.90;999.90;;;;;;;;;;4932208;29;20300;-75
2023/01/24 19:08:30;;;;;;;1999.90;999.90;;;;;;;;;;4925327;29;20214;-75
2023/01/24 19:11:15;;;;;;;1999.90;999.90;;;;;;;;;;4918699;29;20229;-74
2023/01/24 19:14:01;;;;;;;1999.90;999.90;;;;;;;;;;4927807;29;20216;-75
2023/01/24 19:16:46;;;;;;;1999.90;999.90;;;;;;;;;;4932185;29;20209;-75
2023/01/24 19:19:32;;;;;;;1999.90;999.90;;;;;;;;;;4932445;29;20209;-75
2023/01/24 19:22:17;;;;;;;1999.90;999.90;;;;;;;;;;4931945;29;25076;-75
2023/01/24 19:25:02;;;;;;;1999.90;999.90;;;;;;;;;;4931575;29;20695;-72
2023/01/24 19:27:47;;;;;;;1999.90;999.90;;;;;;;;;;4930576;29;20206;-75
2023/01/24 19:30:32;;;;;;;1999.90;999.90;;;;;;;;;;4931135;29;20214;-75
2023/01/24 19:33:17;;;;;;;1999.90;999.90;;;;;;;;;;4932064;29;20206;-74
2023/01/24 19:36:06;;;;;;;1999.90;999.90;;;;;;;;;;4931189;29;20228;-74
2023/01/24 19:38:51;;;;;;;1999.90;999.90;;;;;;;;;;4931343;29;20297;-75
2023/01/24 19:41:36;;;;;;;1999.90;999.90;;;;;;;;;;4931453;29;20301;-75
2023/01/24 19:44:21;;;;;;;1999.90;999.90;;;;;;;;;;4932155;29;20686;-74
2023/01/24 19:47:06;;;;;;;1999.90;999.90;;;;;;;;;;4931873;29;20221;-75
2023/01/24 19:49:51;;;;;;;1999.90;999.90;;;;;;;;;;4935615;29;20221;-75
2023/01/24 19:52:37;;;;;;;1999.90;999.90;;;;;;;;;;4935436;29;20288;-75
2023/01/24 19:55:22;;;;;;;1999.90;999.90;;;;;;;;;;4935616;29;20733;-74
2023/01/24 19:58:07;;;;;;;1999.90;999.90;;;;;;;;;;4935690;29;20217;-75
2023/01/24 20:00:52;;;;;;;1999.90;999.90;;;;;;;;;;4934226;29;21105;-74
2023/01/24 20:03:37;;;;;;;1999.90;999.90;;;;;;;;;;4935264;29;20711;-75
2023/01/24 20:06:22;;;;;;;1999.90;999.90;;;;;;;;;;4934587;29;20312;-75
2023/01/24 20:09:08;;;;;;;1999.90;999.90;;;;;;;;;;4935348;29;20201;-75
2023/01/24 20:11:53;;;;;;;1999.90;999.90;;;;;;;;;;4935197;29;20233;-75
2023/01/24 20:14:38;;;;;;;1999.90;999.90;;;;;;;;;;4934738;29;20209;-75
2023/01/24 20:17:23;;;;;;;1999.90;999.90;;;;;;;;;;4935072;29;20213;-75
2023/01/24 20:20:09;;;;;;;1999.90;999.90;;;;;;;;;;4933414;29;20224;-74
2023/01/24 20:22:55;;;;;;;1999.90;999.90;;;;;;;;;;4933464;29;20208;-74
2023/01/24 20:25:41;;;;;;;1999.90;999.90;;;;;;;;;;4934261;29;20724;-74
2023/01/24 20:28:26;;;;;;;1999.90;999.90;;;;;;;;;;4935062;29;20209;-75
2023/01/24 20:31:12;;;;;;;1999.90;999.90;;;;;;;;;;4934105;29;20608;-75
2023/01/24 20:33:57;;;;;;;1999.90;999.90;;;;;;;;;;4934391;29;20576;-75
2023/01/24 20:36:42;;;;;;;1999.90;999.90;;;;;;;;;;4931297;29;20434;-74
2023/01/24 20:39:27;;;;;;;1999.90;999.90;;;;;;;;;;4933521;29;20213;-74